createdAt,value
2018-10-16T00:00:10.528Z,18.50
2018-10-16T00:02:39.080Z,18.40
2018-10-16T00:05:07.628Z,18.40
2018-10-16T00:07:36.142Z,18.40
2018-10-16T00:10:05.384Z,18.40
2018-10-16T00:12:34.064Z,18.50
2018-10-16T00:15:18.751Z,18.50
2018-10-16T00:17:47.292Z,18.50
2018-10-16T00:20:15.817Z,18.50
2018-10-16T00:22:44.360Z,18.50
2018-10-16T00:25:15.470Z,18.50
2018-10-16T00:27:44.032Z,18.50
2018-10-16T00:30:12.838Z,18.50
2018-10-16T00:32:41.926Z,18.50
2018-10-16T00:35:10.883Z,18.40
2018-10-16T00:37:39.465Z,18.40
2018-10-16T00:40:09.121Z,18.40
2018-10-16T00:42:37.637Z,18.40
2018-10-16T00:45:07.385Z,18.50
2018-10-16T00:47:35.835Z,18.50
2018-10-16T00:50:04.358Z,18.50
2018-10-16T00:52:32.872Z,18.40
2018-10-16T00:55:01.426Z,18.40
2018-10-16T00:57:29.908Z,18.40
2018-10-16T00:59:58.332Z,18.40
2018-10-16T01:02:26.829Z,18.40
2018-10-16T01:04:55.260Z,18.40
2018-10-16T01:07:23.690Z,18.40
2018-10-16T01:09:52.155Z,18.40
2018-10-16T01:12:20.584Z,18.40
2018-10-16T01:14:49.085Z,18.40
2018-10-16T01:17:17.553Z,18.40
2018-10-16T01:19:46.003Z,18.30
2018-10-16T01:22:14.838Z,18.30
2018-10-16T01:24:43.307Z,18.30
2018-10-16T01:27:11.761Z,18.30
2018-10-16T01:29:40.287Z,18.30
2018-10-16T01:32:08.839Z,18.30
2018-10-16T01:34:37.974Z,18.30
2018-10-16T01:37:06.463Z,18.30
2018-10-16T01:39:35.029Z,18.30
2018-10-16T01:42:03.868Z,18.30
2018-10-16T01:44:32.808Z,18.30
2018-10-16T01:47:01.823Z,18.30
2018-10-16T01:49:30.386Z,18.30
2018-10-16T01:51:58.882Z,18.20
2018-10-16T01:54:27.403Z,18.20
2018-10-16T01:57:05.282Z,18.20
2018-10-16T01:59:33.704Z,18.20
2018-10-16T02:02:02.303Z,18.20
2018-10-16T02:04:30.713Z,18.20
2018-10-16T02:06:59.195Z,18.20
2018-10-16T02:09:27.600Z,18.20
2018-10-16T02:11:56.069Z,18.20
2018-10-16T02:14:24.637Z,18.20
2018-10-16T02:16:53.184Z,18.20
2018-10-16T02:19:27.649Z,18.20
2018-10-16T02:21:56.129Z,18.20
2018-10-16T02:24:24.573Z,18.10
2018-10-16T02:26:53.438Z,18.10
2018-10-16T02:29:21.889Z,18.10
2018-10-16T02:31:50.412Z,18.10
2018-10-16T02:34:18.893Z,18.10
2018-10-16T02:36:47.321Z,18.10
2018-10-16T02:39:15.793Z,18.00
2018-10-16T02:41:47.920Z,18.00
2018-10-16T02:44:16.386Z,18.00
2018-10-16T02:46:44.958Z,18.00
2018-10-16T02:49:13.400Z,18.00
2018-10-16T02:51:41.824Z,18.00
2018-10-16T02:54:10.260Z,18.00
2018-10-16T02:56:38.673Z,18.00
2018-10-16T02:59:07.097Z,18.00
2018-10-16T03:01:35.605Z,18.00
2018-10-16T03:04:04.241Z,18.10
2018-10-16T03:06:32.756Z,18.10
2018-10-16T03:09:01.229Z,18.10
2018-10-16T03:11:29.718Z,18.10
2018-10-16T03:13:58.172Z,18.20
2018-10-16T03:16:26.612Z,18.20
2018-10-16T03:18:55.076Z,18.20
2018-10-16T03:21:23.617Z,18.30
2018-10-16T03:23:52.208Z,18.30
2018-10-16T03:26:20.664Z,18.20
2018-10-16T03:28:49.168Z,18.20
2018-10-16T03:31:17.592Z,18.20
2018-10-16T03:33:46.041Z,18.20
2018-10-16T03:36:14.452Z,18.30
2018-10-16T03:38:42.834Z,18.20
2018-10-16T03:41:11.301Z,18.30
2018-10-16T03:43:40.113Z,18.30
2018-10-16T03:46:08.622Z,18.30
2018-10-16T03:48:37.157Z,18.30
2018-10-16T03:51:05.777Z,18.30
2018-10-16T03:53:34.202Z,18.30
2018-10-16T03:56:02.642Z,18.30
2018-10-16T03:58:31.036Z,18.30
2018-10-16T04:01:15.459Z,18.30
2018-10-16T04:03:43.923Z,18.20
2018-10-16T04:06:12.385Z,18.20
2018-10-16T04:08:40.814Z,18.10
2018-10-16T04:11:09.252Z,18.10
2018-10-16T04:13:37.892Z,18.10
2018-10-16T04:16:06.546Z,18.10
2018-10-16T04:18:35.166Z,18.10
2018-10-16T04:21:04.531Z,18.00
2018-10-16T04:23:32.924Z,18.00
2018-10-16T04:26:02.403Z,18.00
2018-10-16T04:28:30.819Z,17.90
2018-10-16T04:30:59.237Z,17.90
2018-10-16T04:33:29.808Z,17.80
2018-10-16T04:35:58.724Z,17.80
2018-10-16T04:38:30.926Z,17.80
2018-10-16T04:40:59.674Z,17.80
2018-10-16T04:43:29.414Z,17.80
2018-10-16T04:45:58.138Z,17.80
2018-10-16T04:48:26.831Z,17.70
2018-10-16T04:50:55.779Z,17.70
2018-10-16T04:53:24.805Z,17.70
2018-10-16T04:55:53.785Z,17.70
2018-10-16T04:58:22.828Z,17.70
2018-10-16T05:00:51.779Z,17.70
2018-10-16T05:03:20.848Z,17.60
2018-10-16T05:05:49.860Z,17.60
2018-10-16T05:08:18.806Z,17.60
2018-10-16T05:10:47.850Z,17.60
2018-10-16T05:13:17.022Z,17.50
2018-10-16T05:15:50.628Z,17.60
2018-10-16T05:18:19.585Z,17.60
2018-10-16T05:20:48.111Z,17.50
2018-10-16T05:23:16.682Z,17.50
2018-10-16T05:25:45.134Z,17.50
2018-10-16T05:28:13.697Z,17.60
2018-10-16T05:30:42.919Z,17.60
2018-10-16T05:33:24.114Z,17.70
2018-10-16T05:35:54.135Z,17.70
2018-10-16T05:38:23.025Z,17.80
2018-10-16T05:41:01.497Z,17.80
2018-10-16T05:43:30.616Z,17.90
2018-10-16T05:46:05.487Z,17.80
2018-10-16T05:48:35.105Z,17.90
2018-10-16T05:51:08.037Z,17.80
2018-10-16T05:53:47.092Z,17.90
2018-10-16T05:56:16.207Z,17.80
2018-10-16T05:58:45.105Z,17.80
2018-10-16T06:01:21.591Z,17.90
2018-10-16T06:03:50.264Z,17.80
2018-10-16T06:06:19.167Z,17.90
2018-10-16T06:08:48.172Z,17.90
2018-10-16T06:11:19.158Z,17.90
2018-10-16T06:13:49.191Z,17.90
2018-10-16T06:16:18.269Z,17.90
2018-10-16T06:18:48.204Z,17.90
2018-10-16T06:21:17.205Z,17.90
2018-10-16T06:23:46.214Z,17.90
2018-10-16T06:26:15.262Z,17.90
2018-10-16T06:28:44.261Z,17.90
2018-10-16T06:31:13.264Z,17.90
2018-10-16T06:33:42.272Z,17.80
2018-10-16T06:36:11.224Z,17.90
2018-10-16T06:38:51.297Z,17.90
2018-10-16T06:41:20.407Z,17.80
2018-10-16T06:43:58.914Z,17.80
2018-10-16T06:46:27.431Z,17.80
2018-10-16T06:48:58.101Z,17.90
2018-10-16T06:51:27.444Z,17.80
2018-10-16T06:53:56.016Z,17.80
2018-10-16T06:56:24.710Z,17.80
2018-10-16T06:58:53.215Z,17.90
2018-10-16T07:01:21.781Z,17.90
2018-10-16T07:03:50.151Z,17.90
2018-10-16T07:06:18.735Z,17.90
2018-10-16T07:08:47.117Z,17.90
2018-10-16T07:11:15.580Z,17.90
2018-10-16T07:13:44.359Z,18.00
2018-10-16T07:16:12.933Z,17.90
2018-10-16T07:18:41.414Z,17.90
2018-10-16T07:21:10.075Z,17.90
2018-10-16T07:23:38.686Z,17.90
2018-10-16T07:26:07.551Z,17.90
2018-10-16T07:28:36.115Z,18.00
2018-10-16T07:31:05.064Z,18.00
2018-10-16T07:33:33.606Z,18.00
2018-10-16T07:36:02.154Z,18.00
2018-10-16T07:38:30.696Z,18.10
2018-10-16T07:40:59.252Z,18.10
2018-10-16T07:43:27.805Z,18.10
2018-10-16T07:45:56.230Z,18.20
2018-10-16T07:48:24.857Z,18.20
2018-10-16T07:50:53.352Z,18.20
2018-10-16T07:53:22.054Z,18.20
2018-10-16T07:55:50.520Z,18.20
2018-10-16T07:58:19.235Z,18.30
2018-10-16T08:00:47.768Z,18.30
2018-10-16T08:03:16.271Z,18.40
2018-10-16T08:05:44.970Z,18.40
2018-10-16T08:08:13.654Z,18.40
2018-10-16T08:10:42.276Z,18.40
2018-10-16T08:13:10.752Z,18.50
2018-10-16T08:15:39.351Z,18.50
2018-10-16T08:18:07.782Z,18.50
2018-10-16T08:20:36.289Z,18.50
2018-10-16T08:23:04.817Z,18.50
2018-10-16T08:25:33.322Z,18.60
2018-10-16T08:28:01.767Z,18.70
2018-10-16T08:30:31.595Z,18.70
2018-10-16T08:33:00.510Z,18.80
2018-10-16T08:35:29.334Z,18.90
2018-10-16T08:39:32.722Z,18.90
2018-10-16T08:44:16.020Z,19.00
2018-10-16T08:46:55.696Z,19.10
2018-10-16T08:49:35.533Z,19.20
2018-10-16T08:52:04.084Z,19.20
2018-10-16T08:54:32.600Z,19.20
2018-10-16T08:57:01.141Z,19.30
2018-10-16T08:59:29.660Z,19.30
2018-10-16T09:01:58.247Z,19.30
2018-10-16T09:04:26.845Z,19.30
2018-10-16T09:06:55.815Z,19.30
2018-10-16T09:09:24.732Z,19.40
2018-10-16T09:11:53.504Z,19.40
2018-10-16T09:14:22.284Z,19.50
2018-10-16T09:16:52.229Z,19.50
2018-10-16T09:19:21.329Z,19.50
2018-10-16T09:21:50.072Z,19.60
2018-10-16T09:24:18.799Z,19.70
2018-10-16T09:26:47.549Z,19.70
2018-10-16T09:29:19.193Z,19.70
2018-10-16T09:31:47.911Z,19.80
2018-10-16T09:34:16.709Z,19.90
2018-10-16T09:36:45.330Z,20.00
2018-10-16T09:39:14.019Z,20.10
2018-10-16T09:41:43.725Z,20.20
2018-10-16T09:44:13.850Z,20.20
2018-10-16T09:46:45.621Z,20.20
2018-10-16T09:49:14.579Z,20.20
2018-10-16T09:51:43.976Z,20.30
2018-10-16T09:54:13.685Z,20.30
2018-10-16T09:56:42.272Z,20.20
2018-10-16T09:59:10.810Z,20.30
2018-10-16T10:01:44.787Z,20.30
2018-10-16T10:04:13.360Z,20.30
2018-10-16T10:06:42.042Z,20.30
2018-10-16T10:09:12.340Z,20.30
2018-10-16T10:11:41.056Z,20.30
2018-10-16T10:14:09.980Z,20.30
2018-10-16T10:16:38.891Z,20.30
2018-10-16T10:19:07.522Z,20.20
2018-10-16T10:21:36.209Z,20.30
2018-10-16T10:24:04.759Z,20.30
2018-10-16T10:26:33.918Z,20.30
2018-10-16T10:29:02.358Z,20.30
2018-10-16T10:31:30.787Z,20.40
2018-10-16T10:33:59.505Z,20.40
2018-10-16T10:36:28.039Z,20.40
2018-10-16T10:38:58.522Z,20.50
2018-10-16T10:41:27.973Z,20.50
2018-10-16T10:43:56.652Z,20.60
2018-10-16T10:46:25.271Z,20.60
2018-10-16T10:48:53.929Z,20.60
2018-10-16T10:51:22.943Z,20.60
2018-10-16T10:53:51.191Z,20.60
2018-10-16T10:56:19.904Z,20.70
2018-10-16T10:58:48.581Z,20.70
2018-10-16T11:01:17.101Z,20.80
2018-10-16T11:03:45.898Z,20.80
2018-10-16T11:06:14.610Z,20.80
2018-10-16T11:08:43.086Z,20.80
2018-10-16T11:11:13.076Z,20.90
2018-10-16T11:13:42.290Z,20.90
2018-10-16T11:16:12.081Z,21.00
2018-10-16T11:18:40.696Z,21.00
2018-10-16T11:21:09.305Z,21.00
2018-10-16T11:23:37.848Z,21.10
2018-10-16T11:26:06.364Z,21.10
2018-10-16T11:28:35.596Z,21.20
2018-10-16T11:31:04.201Z,21.20
2018-10-16T11:33:32.698Z,21.30
2018-10-16T11:36:01.218Z,21.40
2018-10-16T11:38:29.854Z,21.50
2018-10-16T11:40:58.743Z,21.60
2018-10-16T11:43:27.488Z,21.80
2018-10-16T11:45:56.185Z,21.90
2018-10-16T11:48:24.738Z,22.10
2018-10-16T11:50:53.192Z,22.20
2018-10-16T11:53:21.765Z,22.30
2018-10-16T11:55:50.560Z,22.50
2018-10-16T11:58:19.271Z,22.60
2018-10-16T12:00:47.780Z,22.80
2018-10-16T12:03:16.806Z,23.00
2018-10-16T12:05:45.804Z,23.20
2018-10-16T12:08:14.848Z,23.50
2018-10-16T12:10:44.331Z,23.70
2018-10-16T12:13:12.960Z,23.90
2018-10-16T12:15:41.907Z,24.20
2018-10-16T12:18:16.296Z,24.50
2018-10-16T12:20:48.877Z,24.70
2018-10-16T12:23:17.828Z,24.90
2018-10-16T12:25:47.378Z,25.00
2018-10-16T12:28:16.038Z,25.20
2018-10-16T12:30:44.945Z,25.30
2018-10-16T12:33:13.759Z,25.30
2018-10-16T12:35:43.421Z,25.40
2018-10-16T12:38:11.993Z,25.50
2018-10-16T12:40:41.006Z,25.60
2018-10-16T12:43:13.601Z,25.60
2018-10-16T12:45:42.173Z,25.60
2018-10-16T12:48:10.677Z,25.30
2018-10-16T12:50:39.163Z,25.00
2018-10-16T12:53:08.378Z,24.70
2018-10-16T12:55:37.155Z,24.40
2018-10-16T12:58:06.423Z,24.20
2018-10-16T13:00:34.926Z,24.00
2018-10-16T13:03:03.428Z,24.00
2018-10-16T13:05:32.146Z,24.00
2018-10-16T13:08:00.946Z,24.00
2018-10-16T13:10:29.827Z,24.00
2018-10-16T13:12:58.481Z,24.00
2018-10-16T13:15:27.379Z,24.00
2018-10-16T13:17:57.134Z,24.00
2018-10-16T13:20:35.738Z,24.10
2018-10-16T13:23:04.387Z,24.10
2018-10-16T13:25:33.286Z,24.20
2018-10-16T13:28:05.856Z,24.20
2018-10-16T13:30:46.117Z,24.20
2018-10-16T13:33:14.710Z,24.20
2018-10-16T13:35:43.474Z,24.10
2018-10-16T13:38:12.138Z,24.10
2018-10-16T13:40:43.777Z,24.00
2018-10-16T13:43:18.206Z,23.90
2018-10-16T13:45:46.818Z,23.90
2018-10-16T13:48:16.243Z,24.00
2018-10-16T13:50:44.860Z,23.90
2018-10-16T13:53:14.279Z,23.90
2018-10-16T13:55:46.471Z,24.00
2018-10-16T13:58:21.299Z,23.90
2018-10-16T14:00:49.812Z,23.90
2018-10-16T14:03:18.590Z,23.80
2018-10-16T14:05:47.114Z,23.80
2018-10-16T14:08:15.771Z,23.80
2018-10-16T14:10:44.418Z,23.70
2018-10-16T14:13:19.661Z,23.70
2018-10-16T14:15:48.332Z,23.80
2018-10-16T14:18:16.874Z,23.80
2018-10-16T14:20:49.198Z,23.80
2018-10-16T14:23:24.531Z,23.80
2018-10-16T14:25:53.539Z,23.80
2018-10-16T14:28:22.048Z,23.80
2018-10-16T14:30:50.535Z,23.70
2018-10-16T14:33:21.558Z,23.70
2018-10-16T14:35:50.054Z,23.70
2018-10-16T14:38:18.658Z,23.70
2018-10-16T14:40:46.989Z,23.70
2018-10-16T14:43:15.493Z,23.70
2018-10-16T14:45:43.897Z,23.70
2018-10-16T14:48:12.427Z,23.70
2018-10-16T14:50:40.738Z,23.60
2018-10-16T14:53:26.696Z,23.60
2018-10-16T14:56:05.454Z,23.70
2018-10-16T14:58:33.877Z,23.60
2018-10-16T15:01:15.781Z,23.60
2018-10-16T15:03:45.222Z,23.60
2018-10-16T15:06:14.109Z,23.60
2018-10-16T15:08:44.940Z,23.60
2018-10-16T15:11:13.513Z,23.60
2018-10-16T15:13:42.177Z,23.50
2018-10-16T15:16:10.864Z,23.50
2018-10-16T15:18:39.292Z,23.50
2018-10-16T15:21:07.979Z,23.50
2018-10-16T15:23:36.550Z,23.40
2018-10-16T15:26:05.726Z,23.40
2018-10-16T15:28:34.697Z,23.30
2018-10-16T15:31:03.510Z,23.30
2018-10-16T15:33:31.994Z,23.30
2018-10-16T15:36:01.368Z,23.20
2018-10-16T15:38:30.166Z,23.20
2018-10-16T15:40:58.690Z,23.20
2018-10-16T15:43:27.323Z,23.20
2018-10-16T15:45:55.966Z,23.10
2018-10-16T15:48:24.660Z,23.10
2018-10-16T15:50:53.674Z,23.10
2018-10-16T15:53:24.453Z,23.00
2018-10-16T15:55:55.636Z,23.00
2018-10-16T15:58:31.883Z,23.00
2018-10-16T16:01:03.800Z,23.00
2018-10-16T16:03:32.401Z,22.90
2018-10-16T16:06:01.071Z,22.80
2018-10-16T16:08:29.759Z,22.80
2018-10-16T16:11:04.365Z,22.70
2018-10-16T16:13:33.950Z,22.70
2018-10-16T16:16:02.514Z,22.60
2018-10-16T16:18:31.186Z,22.60
2018-10-16T16:20:59.769Z,22.60
2018-10-16T16:23:34.225Z,22.50
2018-10-16T16:26:02.882Z,22.50
2018-10-16T16:28:31.371Z,22.50
2018-10-16T16:31:00.070Z,22.50
2018-10-16T16:33:31.717Z,22.40
2018-10-16T16:36:04.256Z,22.30
2018-10-16T16:38:32.702Z,22.30
2018-10-16T16:41:02.770Z,22.20
2018-10-16T16:43:32.705Z,22.20
2018-10-16T16:46:02.700Z,22.10
2018-10-16T16:48:32.254Z,22.10
2018-10-16T17:16:47.601Z,22.00
2018-10-16T17:19:19.066Z,21.60
2018-10-16T17:21:49.119Z,21.60
2018-10-16T17:24:18.189Z,21.60
2018-10-16T17:26:48.756Z,21.50
2018-10-16T17:29:19.137Z,21.50
2018-10-16T17:31:48.439Z,21.50
2018-10-16T17:34:17.497Z,21.50
2018-10-16T17:36:48.476Z,21.40
2018-10-16T17:39:18.896Z,21.40
2018-10-16T17:41:48.605Z,21.40
2018-10-16T17:47:47.598Z,21.30
2018-10-16T17:50:17.980Z,21.30
2018-10-16T17:52:59.725Z,21.30
2018-10-16T17:55:28.468Z,21.30
2018-10-16T17:58:00.148Z,21.20
2018-10-16T18:00:29.181Z,21.20
2018-10-16T18:02:59.812Z,21.20
2018-10-16T18:05:30.022Z,21.20
2018-10-16T18:07:59.517Z,21.10
2018-10-16T18:10:31.187Z,21.10
2018-10-16T18:12:59.956Z,21.10
2018-10-16T18:15:29.873Z,21.10
2018-10-16T18:18:00.692Z,21.10
2018-10-16T18:20:29.263Z,21.10
2018-10-16T18:22:59.982Z,21.10
2018-10-16T18:25:29.031Z,21.00
2018-10-16T18:27:59.604Z,21.00
2018-10-16T18:30:28.580Z,21.00
2018-10-16T18:46:36.396Z,20.90
2018-10-16T18:49:05.617Z,20.80
2018-10-16T18:51:34.630Z,20.80
2018-10-16T18:54:12.663Z,20.80
2018-10-16T18:56:42.869Z,20.70
2018-10-16T18:59:13.280Z,20.70
2018-10-16T19:01:43.996Z,20.70
2018-10-16T19:04:12.894Z,20.70
2018-10-16T19:06:42.472Z,20.60
2018-10-16T19:09:13.394Z,20.60
2018-10-16T19:11:44.409Z,20.60
2018-10-16T19:14:13.895Z,20.60
2018-10-16T19:16:46.169Z,20.60
2018-10-16T19:19:15.009Z,20.60
2018-10-16T19:21:43.999Z,20.50
2018-10-16T19:24:12.970Z,20.60
2018-10-16T19:26:41.782Z,20.50
2018-10-16T19:29:10.977Z,20.50
2018-10-16T19:31:40.031Z,20.40
2018-10-16T19:34:09.798Z,20.30
2018-10-16T19:36:38.507Z,20.20
2018-10-16T19:39:09.136Z,20.20
2018-10-16T19:41:38.089Z,20.10
2018-10-16T19:44:07.036Z,20.10
2018-10-16T19:46:35.748Z,20.00
2018-10-16T19:49:04.233Z,20.00
2018-10-16T19:51:33.135Z,19.90
2018-10-16T19:54:02.234Z,19.90
2018-10-16T19:56:31.178Z,19.90
2018-10-16T19:59:00.200Z,19.80
2018-10-16T20:01:29.358Z,19.80
2018-10-16T20:04:01.954Z,19.70
2018-10-16T20:06:31.251Z,19.70
2018-10-16T20:09:04.754Z,19.70
2018-10-16T20:11:34.272Z,19.60
2018-10-16T20:14:03.763Z,19.60
2018-10-16T20:16:33.294Z,19.60
2018-10-16T20:19:02.293Z,19.60
2018-10-16T20:21:32.267Z,19.50
2018-10-16T20:24:01.385Z,19.50
2018-10-16T20:26:31.464Z,19.50
2018-10-16T20:29:00.333Z,19.50
2018-10-16T20:31:30.868Z,19.50
2018-10-16T20:33:59.847Z,19.50
2018-10-16T20:36:29.385Z,19.50
2018-10-16T20:38:58.454Z,19.50
2018-10-16T20:41:27.609Z,19.40
2018-10-16T20:43:56.975Z,19.40
2018-10-16T20:46:26.113Z,19.40
2018-10-16T20:48:54.943Z,19.40
2018-10-16T20:51:26.044Z,19.30
2018-10-16T20:53:55.450Z,19.30
2018-10-16T20:56:24.536Z,19.20
2018-10-16T20:58:53.471Z,19.20
2018-10-16T21:01:22.938Z,19.20
2018-10-16T21:04:08.057Z,19.10
2018-10-16T21:06:37.143Z,19.00
2018-10-16T21:09:12.486Z,19.00
2018-10-16T21:11:41.558Z,19.00
2018-10-16T21:14:12.029Z,18.90
2018-10-16T21:16:41.562Z,18.90
2018-10-16T21:19:18.279Z,18.90
2018-10-16T21:21:47.598Z,18.80
2018-10-16T21:24:16.558Z,18.80
2018-10-16T21:26:49.652Z,18.80
2018-10-16T21:29:19.575Z,18.70
2018-10-16T21:31:48.443Z,18.60
2018-10-16T21:34:17.611Z,18.60
2018-10-16T21:36:46.152Z,18.60
2018-10-16T21:39:21.750Z,18.50
2018-10-16T21:41:50.778Z,18.50
2018-10-16T21:44:19.724Z,18.50
2018-10-16T21:46:50.053Z,18.50
2018-10-16T21:49:18.751Z,18.40
2018-10-16T21:51:47.661Z,18.40
2018-10-16T21:54:16.669Z,18.30
2018-10-16T21:56:45.682Z,18.30
2018-10-16T21:59:14.833Z,18.30
2018-10-16T22:01:49.487Z,18.20
2018-10-16T22:04:18.220Z,18.20
2018-10-16T22:06:47.097Z,18.20
2018-10-16T22:09:15.977Z,18.10
2018-10-16T22:11:44.820Z,18.10
2018-10-16T22:14:14.566Z,18.10
2018-10-16T22:16:43.542Z,18.10
2018-10-16T22:19:12.453Z,18.10
2018-10-16T22:21:41.047Z,18.20
2018-10-16T22:24:09.543Z,18.20
2018-10-16T22:26:38.095Z,18.20
2018-10-16T22:29:06.669Z,18.20
2018-10-16T22:31:35.094Z,18.20
2018-10-16T22:34:03.650Z,18.20
2018-10-16T22:36:32.135Z,18.20
2018-10-16T22:39:00.728Z,18.10
2018-10-16T22:41:29.131Z,18.10
2018-10-16T22:43:57.688Z,18.10
2018-10-16T22:46:26.337Z,18.00
2018-10-16T22:48:54.879Z,18.00
2018-10-16T22:51:23.278Z,18.00
2018-10-16T22:53:51.752Z,17.90
2018-10-16T22:56:20.283Z,17.90
2018-10-16T22:58:48.794Z,17.80
2018-10-16T23:01:17.291Z,17.80
2018-10-16T23:03:45.862Z,17.80
2018-10-16T23:06:17.154Z,17.80
2018-10-16T23:08:45.942Z,17.70
2018-10-16T23:11:14.780Z,17.70
2018-10-16T23:13:44.140Z,17.70
2018-10-16T23:16:12.892Z,17.70
2018-10-16T23:18:41.650Z,17.60
2018-10-16T23:21:10.544Z,17.60
2018-10-16T23:23:39.642Z,17.60
2018-10-16T23:26:08.833Z,17.50
2018-10-16T23:28:38.344Z,17.50
2018-10-16T23:31:07.205Z,17.60
2018-10-16T23:33:39.185Z,17.60
2018-10-16T23:36:08.121Z,17.60
2018-10-16T23:38:37.667Z,17.60
2018-10-16T23:41:08.350Z,17.60
2018-10-16T23:43:37.922Z,17.60
2018-10-16T23:46:07.285Z,17.60
2018-10-16T23:48:37.782Z,17.60
2018-10-16T23:51:08.318Z,17.50
2018-10-16T23:53:38.329Z,17.50
2018-10-16T23:56:07.841Z,17.40
2018-10-16T23:58:36.998Z,17.40
